createdAt,value
2022-08-17T00:01:02.848Z,100894.02
2022-08-17T00:04:17.840Z,100895.02
2022-08-17T00:07:01.605Z,100891.48
2022-08-17T00:09:48.750Z,100890.52
2022-08-17T00:12:41.535Z,100888.23
2022-08-17T00:15:12.425Z,100887.84
2022-08-17T00:19:06.865Z,100886.54
2022-08-17T00:22:32.032Z,100883.53
2022-08-17T00:25:48.601Z,100878.93
2022-08-17T00:28:45.132Z,100874.91
2022-08-17T00:31:04.516Z,100874.23
2022-08-17T00:34:12.881Z,100871.71
2022-08-17T00:36:46.163Z,100869.64
2022-08-17T00:39:52.633Z,100869.59
2022-08-17T00:43:15.591Z,100868.45
2022-08-17T00:46:13.361Z,100864.88
2022-08-17T00:48:43.787Z,100863.98
2022-08-17T00:52:11.793Z,100870.96
2022-08-17T00:55:03.491Z,100865.05
2022-08-17T00:58:01.659Z,100866.02
2022-08-17T01:00:54.653Z,100861.29
2022-08-17T01:03:47.555Z,100857.24
2022-08-17T01:06:57.452Z,100853.08
2022-08-17T01:10:58.954Z,100850.59
2022-08-17T01:13:52.427Z,100853.34
2022-08-17T01:17:04.750Z,100854.58
2022-08-17T01:19:47.148Z,100849.29
2022-08-17T01:22:47.240Z,100850.78
2022-08-17T01:25:41.152Z,100846.81
2022-08-17T01:27:55.671Z,100846.17
2022-08-17T01:30:57.718Z,100845.56
2022-08-17T01:33:18.323Z,100843.27
2022-08-17T01:36:23.911Z,100844.37
2022-08-17T01:39:23.546Z,100845.38
2022-08-17T01:42:40.661Z,100844.38
2022-08-17T01:45:42.816Z,100835.88
2022-08-17T01:48:43.780Z,100831.11
2022-08-17T01:51:45.440Z,100833.23
2022-08-17T01:54:43.715Z,100828.88
2022-08-17T01:57:16.096Z,100824.80
2022-08-17T02:00:14.765Z,100827.61
2022-08-17T02:03:24.546Z,100824.87
2022-08-17T02:05:54.360Z,100822.79
2022-08-17T02:08:38.911Z,100825.80
2022-08-17T02:12:38.830Z,100830.04
2022-08-17T02:15:22.648Z,100827.06
2022-08-17T02:17:42.202Z,100830.27
2022-08-17T02:20:42.324Z,100832.98
2022-08-17T02:23:32.319Z,100827.66
2022-08-17T02:26:32.810Z,100826.90
2022-08-17T02:29:42.250Z,100824.26
2022-08-17T02:33:09.383Z,100826.08
2022-08-17T02:36:02.023Z,100824.58
2022-08-17T02:38:44.660Z,100825.14
2022-08-17T02:41:21.373Z,100824.62
2022-08-17T02:43:34.725Z,100819.27
2022-08-17T02:46:20.716Z,100816.98
2022-08-17T02:49:37.182Z,100819.01
2022-08-17T02:52:43.139Z,100812.56
2022-08-17T02:56:00.634Z,100819.08
2022-08-17T02:58:35.486Z,100819.98
2022-08-17T03:01:43.126Z,100815.64
2022-08-17T03:04:35.190Z,100816.42
2022-08-17T03:07:21.767Z,100817.92
2022-08-17T03:10:20.759Z,100814.48
2022-08-17T03:13:05.906Z,100814.87
2022-08-17T03:15:43.866Z,100819.09
2022-08-17T03:18:06.811Z,100818.90
2022-08-17T03:21:06.731Z,100818.57
2022-08-17T03:23:34.831Z,100824.17
2022-08-17T03:26:30.641Z,100821.55
2022-08-17T03:29:36.716Z,100827.81
2022-08-17T03:32:21.562Z,100828.56
2022-08-17T03:35:21.950Z,100831.36
2022-08-17T03:38:29.000Z,100833.33
2022-08-17T03:41:28.203Z,100836.56
2022-08-17T03:43:49.183Z,100838.48
2022-08-17T03:46:35.597Z,100840.97
2022-08-17T03:49:35.082Z,100839.67
2022-08-17T03:52:12.280Z,100846.34
2022-08-17T03:54:43.106Z,100846.60
2022-08-17T03:57:27.154Z,100850.83
2022-08-17T03:59:39.063Z,100852.23
2022-08-17T04:02:26.635Z,100853.34
2022-08-17T04:04:43.871Z,100856.86
2022-08-17T04:07:32.151Z,100862.15
2022-08-17T04:10:00.413Z,100865.34
2022-08-17T04:12:32.683Z,100865.17
2022-08-17T04:15:38.618Z,100867.14
2022-08-17T04:18:11.083Z,100867.41
2022-08-17T04:21:05.679Z,100872.27
2022-08-17T04:23:45.964Z,100872.37
2022-08-17T04:26:53.379Z,100873.95
2022-08-17T04:29:13.480Z,100878.16
2022-08-17T04:32:58.621Z,100878.04
2022-08-17T04:35:37.145Z,100877.36
2022-08-17T04:38:07.324Z,100876.75
2022-08-17T04:41:13.345Z,100880.27
2022-08-17T04:43:47.462Z,100877.92
2022-08-17T04:46:10.708Z,100880.88
2022-08-17T04:48:55.013Z,100879.65
2022-08-17T04:51:08.417Z,100886.19
2022-08-17T04:53:32.421Z,100890.52
2022-08-17T04:56:16.916Z,100890.16
2022-08-17T04:58:54.964Z,100894.94
2022-08-17T05:01:28.247Z,100893.34
2022-08-17T05:03:49.612Z,100893.58
2022-08-17T05:06:16.308Z,100896.14
2022-08-17T05:08:35.924Z,100898.78
2022-08-17T05:11:31.282Z,100894.94
2022-08-17T05:13:46.346Z,100897.63
2022-08-17T05:16:20.951Z,100895.73
2022-08-17T05:18:49.970Z,100893.53
2022-08-17T05:21:06.778Z,100899.60
2022-08-17T05:24:10.994Z,100895.09
2022-08-17T05:27:35.117Z,100899.70
2022-08-17T05:29:52.013Z,100898.66
2022-08-17T05:32:40.507Z,100890.39
2022-08-17T05:35:01.416Z,100894.91
2022-08-17T05:37:36.613Z,100896.79
2022-08-17T05:40:09.100Z,100898.60
2022-08-17T05:42:30.537Z,100895.83
2022-08-17T05:44:45.985Z,100896.66
2022-08-17T05:47:06.408Z,100896.38
2022-08-17T05:49:43.958Z,100894.48
2022-08-17T05:52:41.185Z,100895.10
2022-08-17T05:55:13.852Z,100894.52
2022-08-17T05:57:42.125Z,100894.97
2022-08-17T06:00:12.052Z,100893.25
2022-08-17T06:03:19.609Z,100896.98
2022-08-17T06:06:42.192Z,100896.30
2022-08-17T06:09:31.491Z,100900.88
2022-08-17T06:12:22.587Z,100899.60
2022-08-17T06:15:27.193Z,100898.85
2022-08-17T06:17:42.523Z,100902.92
2022-08-17T06:20:37.605Z,100899.91
2022-08-17T06:23:01.205Z,100899.09
2022-08-17T06:26:06.174Z,100902.92
2022-08-17T06:28:49.049Z,100904.20
2022-08-17T06:31:24.041Z,100903.02
2022-08-17T06:34:05.364Z,100902.30
2022-08-17T06:36:48.762Z,100904.09
2022-08-17T06:39:29.221Z,100903.33
2022-08-17T06:42:55.042Z,100902.63
2022-08-17T06:45:45.073Z,100905.29
2022-08-17T06:48:16.325Z,100910.02
2022-08-17T06:51:27.220Z,100915.70
2022-08-17T06:54:33.951Z,100920.59
2022-08-17T06:57:17.660Z,100923.39
2022-08-17T06:59:57.628Z,100925.79
2022-08-17T07:02:29.184Z,100923.30
2022-08-17T07:05:22.407Z,100925.93
2022-08-17T07:08:17.627Z,100924.61
2022-08-17T07:11:05.157Z,100927.21
2022-08-17T07:14:17.292Z,100927.46
2022-08-17T07:17:10.441Z,100937.00
2022-08-17T07:19:44.498Z,100938.86
2022-08-17T07:22:57.693Z,100932.33
2022-08-17T07:25:23.471Z,100936.50
2022-08-17T07:28:19.188Z,100940.52
2022-08-17T07:31:08.995Z,100942.99
2022-08-17T07:33:39.366Z,100946.17
2022-08-17T07:36:02.774Z,100946.26
2022-08-17T07:38:49.648Z,100946.92
2022-08-17T07:41:07.575Z,100943.14
2022-08-17T07:44:15.282Z,100941.07
2022-08-17T07:47:11.528Z,100941.00
2022-08-17T07:49:49.097Z,100942.10
2022-08-17T07:52:50.259Z,100943.61
2022-08-17T07:55:44.777Z,100943.70
2022-08-17T07:58:03.306Z,100941.79
2022-08-17T08:00:29.148Z,100941.67
2022-08-17T08:02:50.850Z,100939.89
2022-08-17T08:06:00.329Z,100944.11
2022-08-17T08:08:50.093Z,100944.92
2022-08-17T08:11:44.420Z,100944.31
2022-08-17T08:14:28.904Z,100946.45
2022-08-17T08:17:05.854Z,100944.71
2022-08-17T08:19:45.863Z,100949.35
2022-08-17T08:22:59.060Z,100946.59
2022-08-17T08:25:53.344Z,100947.33
2022-08-17T08:28:12.629Z,100947.02
2022-08-17T08:31:00.410Z,100948.88
2022-08-17T08:34:49.732Z,100947.81
2022-08-17T08:37:42.990Z,100948.45
2022-08-17T08:40:32.414Z,100949.78
2022-08-17T08:43:18.866Z,100946.56
2022-08-17T08:46:25.997Z,100945.68
2022-08-17T08:49:12.364Z,100945.13
2022-08-17T08:52:22.251Z,100944.12
2022-08-17T08:55:34.169Z,100936.52
2022-08-17T08:58:31.789Z,100941.09
2022-08-17T09:01:01.886Z,100940.54
2022-08-17T09:04:06.721Z,100942.73
2022-08-17T09:06:59.893Z,100939.48
2022-08-17T09:09:48.081Z,100937.70
2022-08-17T09:12:38.782Z,100937.92
2022-08-17T09:15:33.828Z,100940.12
2022-08-17T09:19:03.478Z,100936.35
2022-08-17T09:21:50.265Z,100935.90
2022-08-17T09:24:55.702Z,100937.41
2022-08-17T09:28:21.231Z,100939.38
2022-08-17T09:31:17.079Z,100935.50
2022-08-17T09:33:44.620Z,100935.45
2022-08-17T09:36:20.562Z,100933.04
2022-08-17T09:39:35.706Z,100936.57
2022-08-17T09:42:46.204Z,100938.33
2022-08-17T09:46:13.397Z,100937.31
2022-08-17T09:49:25.666Z,100940.27
2022-08-17T09:52:49.751Z,100940.18
2022-08-17T09:55:41.274Z,100939.59
2022-08-17T09:58:41.588Z,100944.58
2022-08-17T10:01:46.543Z,100946.58
2022-08-17T10:04:48.555Z,100946.82
2022-08-17T10:08:08.225Z,100947.75
2022-08-17T10:10:38.610Z,100953.57
2022-08-17T10:13:39.258Z,100949.05
2022-08-17T10:16:49.125Z,100951.71
2022-08-17T10:19:49.162Z,100955.59
2022-08-17T10:22:54.771Z,100956.65
2022-08-17T10:25:56.189Z,100958.27
2022-08-17T10:28:57.826Z,100964.88
2022-08-17T10:32:04.481Z,100966.68
2022-08-17T10:35:07.511Z,100959.52
2022-08-17T10:37:58.195Z,100955.12
2022-08-17T10:40:58.340Z,100957.26
2022-08-17T10:44:37.452Z,100949.58
2022-08-17T10:47:28.165Z,100950.86
2022-08-17T10:49:42.814Z,100949.09
2022-08-17T10:52:11.251Z,100949.48
2022-08-17T10:54:27.004Z,100945.33
2022-08-17T10:56:55.222Z,100948.20
2022-08-17T10:59:37.617Z,100946.60
2022-08-17T11:02:59.459Z,100942.48
2022-08-17T11:06:15.838Z,100945.68
2022-08-17T11:09:21.759Z,100942.20
2022-08-17T11:11:52.349Z,100940.12
2022-08-17T11:15:09.473Z,100947.98
2022-08-17T11:17:52.032Z,100947.77
2022-08-17T11:20:41.623Z,100952.65
2022-08-17T11:24:15.985Z,100954.80
2022-08-17T11:27:33.357Z,100954.33
2022-08-17T11:30:39.634Z,100959.93
2022-08-17T11:33:46.470Z,100957.61
2022-08-17T11:36:38.197Z,100958.95
2022-08-17T11:39:16.859Z,100962.33
2022-08-17T11:42:50.395Z,100969.87
2022-08-17T11:46:17.478Z,100968.79
2022-08-17T11:49:28.658Z,100972.04
2022-08-17T11:52:24.806Z,100969.88
2022-08-17T11:55:03.617Z,100966.61
2022-08-17T11:58:38.101Z,100959.38
2022-08-17T12:01:29.202Z,100952.90
2022-08-17T12:04:20.673Z,100957.64
2022-08-17T12:07:41.245Z,100957.52
2022-08-17T12:10:12.563Z,100961.57
2022-08-17T12:13:01.106Z,100966.94
2022-08-17T12:15:51.887Z,100960.85
2022-08-17T12:18:44.744Z,100958.33
2022-08-17T12:21:59.911Z,100961.48
2022-08-17T12:25:17.143Z,100958.65
2022-08-17T12:28:06.479Z,100953.39
2022-08-17T12:30:56.570Z,100957.21
2022-08-17T12:33:29.352Z,100953.83
2022-08-17T12:35:57.512Z,100958.93
2022-08-17T12:39:14.419Z,100961.50
2022-08-17T12:42:30.620Z,100966.52
2022-08-17T12:45:18.286Z,100962.81
2022-08-17T12:47:59.690Z,100965.29
2022-08-17T12:50:39.628Z,100964.77
2022-08-17T12:53:30.684Z,100962.64
2022-08-17T12:56:16.092Z,100955.36
2022-08-17T12:58:54.539Z,100958.38
2022-08-17T13:02:16.836Z,100962.71
2022-08-17T13:05:10.531Z,100960.34
2022-08-17T13:08:33.855Z,100959.98
2022-08-17T13:10:57.692Z,100962.64
2022-08-17T13:13:35.158Z,100962.80
2022-08-17T13:16:43.811Z,100967.69
2022-08-17T13:19:39.945Z,100961.91
2022-08-17T13:22:44.400Z,100958.75
2022-08-17T13:25:54.143Z,100958.52
2022-08-17T13:28:36.538Z,100956.49
2022-08-17T13:32:21.669Z,100963.64
2022-08-17T13:35:15.274Z,100963.25
2022-08-17T13:38:28.711Z,100968.71
2022-08-17T13:40:59.601Z,100969.09
2022-08-17T13:44:09.531Z,100971.20
2022-08-17T13:46:42.779Z,100970.00
2022-08-17T13:49:50.192Z,100978.16
2022-08-17T13:52:40.381Z,100979.83
2022-08-17T13:55:43.696Z,100978.05
2022-08-17T13:58:45.019Z,100980.80
2022-08-17T14:01:16.908Z,100985.96
2022-08-17T14:03:36.335Z,100986.73
2022-08-17T14:06:11.361Z,100988.40
2022-08-17T14:09:12.447Z,100985.59
2022-08-17T14:12:20.310Z,100982.63
2022-08-17T14:14:56.594Z,100983.13
2022-08-17T14:17:38.122Z,100985.33
2022-08-17T14:19:52.657Z,100986.38
2022-08-17T14:22:45.476Z,100986.98
2022-08-17T14:25:31.787Z,100991.02
2022-08-17T14:28:01.686Z,100985.08
2022-08-17T14:30:52.797Z,100988.59
2022-08-17T14:33:39.795Z,100986.09
2022-08-17T14:36:20.712Z,100983.87
2022-08-17T14:39:04.371Z,100986.27
2022-08-17T14:41:54.329Z,100985.09
2022-08-17T14:44:20.633Z,100985.84
2022-08-17T14:46:36.289Z,100981.84
2022-08-17T14:49:05.581Z,100985.14
2022-08-17T14:52:23.159Z,100979.58
2022-08-17T14:55:30.054Z,100973.92
2022-08-17T14:58:23.606Z,100971.95
2022-08-17T15:01:20.906Z,100975.05
2022-08-17T15:03:55.035Z,100978.41
2022-08-17T15:06:21.094Z,100979.12
2022-08-17T15:09:15.722Z,100985.18
2022-08-17T15:12:05.398Z,100980.98
2022-08-17T15:15:13.098Z,100978.88
2022-08-17T15:17:45.941Z,100972.55
2022-08-17T15:20:14.742Z,100974.92
2022-08-17T15:22:59.960Z,100972.36
2022-08-17T15:26:27.133Z,100973.67
2022-08-17T15:29:31.793Z,100966.52
2022-08-17T15:31:52.102Z,100970.33
2022-08-17T15:34:08.738Z,100967.90
2022-08-17T15:37:25.964Z,100970.05
2022-08-17T15:39:35.797Z,100969.65
2022-08-17T15:41:58.393Z,100966.86
2022-08-17T15:44:44.552Z,100966.21
2022-08-17T15:47:23.185Z,100963.98
2022-08-17T15:49:40.071Z,100961.61
2022-08-17T15:51:58.592Z,100962.88
2022-08-17T15:54:34.603Z,100958.29
2022-08-17T15:57:03.270Z,100955.39
2022-08-17T15:59:59.291Z,100953.66
2022-08-17T16:03:46.050Z,100953.66
2022-08-17T16:05:52.582Z,100949.86
2022-08-17T16:08:21.254Z,100944.77
2022-08-17T16:10:41.438Z,100938.52
2022-08-17T16:13:11.671Z,100939.46
2022-08-17T16:15:57.074Z,100935.82
2022-08-17T16:18:16.020Z,100935.77
2022-08-17T16:20:44.473Z,100929.05
2022-08-17T16:23:18.457Z,100931.34
2022-08-17T16:25:52.946Z,100934.66
2022-08-17T16:28:35.951Z,100932.11
2022-08-17T16:30:59.246Z,100930.35
2022-08-17T16:33:56.897Z,100928.34
2022-08-17T16:36:25.408Z,100917.95
2022-08-17T16:38:32.224Z,100919.27
2022-08-17T16:40:39.601Z,100923.64
2022-08-17T16:42:49.531Z,100922.69
2022-08-17T16:44:58.666Z,100917.77
2022-08-17T16:47:11.803Z,100915.20
2022-08-17T16:49:38.073Z,100910.66
2022-08-17T16:51:49.471Z,100911.42
2022-08-17T16:54:07.637Z,100908.29
2022-08-17T16:56:36.144Z,100904.48
2022-08-17T16:58:47.010Z,100906.42
2022-08-17T17:01:00.549Z,100900.88
2022-08-17T17:03:19.572Z,100897.93
2022-08-17T17:06:06.362Z,100894.16
2022-08-17T17:08:31.414Z,100892.61
2022-08-17T17:10:46.098Z,100891.80
2022-08-17T17:13:02.457Z,100892.64
2022-08-17T17:15:12.589Z,100890.61
2022-08-17T17:17:53.704Z,100891.27
2022-08-17T17:20:23.881Z,100890.28
2022-08-17T17:22:49.382Z,100889.11
2022-08-17T17:25:28.464Z,100882.70
2022-08-17T17:28:27.515Z,100887.18
2022-08-17T17:31:27.365Z,100885.46
2022-08-17T17:33:47.787Z,100883.63
2022-08-17T17:36:08.009Z,100881.39
2022-08-17T17:38:22.563Z,100881.38
2022-08-17T17:40:47.293Z,100881.24
2022-08-17T17:43:09.257Z,100885.39
2022-08-17T17:45:33.098Z,100886.61
2022-08-17T17:47:42.721Z,100885.60
2022-08-17T17:49:57.101Z,100881.02
2022-08-17T17:52:38.410Z,100878.73
2022-08-17T17:55:03.514Z,100880.70
2022-08-17T17:57:32.836Z,100877.14
2022-08-17T17:59:46.161Z,100877.63
2022-08-17T18:02:51.990Z,100872.19
2022-08-17T18:05:15.053Z,100866.45
2022-08-17T18:07:48.767Z,100864.65
2022-08-17T18:10:29.302Z,100856.52
2022-08-17T18:13:09.362Z,100855.59
2022-08-17T18:15:52.376Z,100850.24
2022-08-17T18:18:38.845Z,100847.75
2022-08-17T18:21:21.625Z,100841.58
2022-08-17T18:23:41.171Z,100835.86
2022-08-17T18:25:51.543Z,100834.35
2022-08-17T18:28:23.344Z,100830.73
2022-08-17T18:30:58.247Z,100829.89
2022-08-17T18:33:25.782Z,100827.44
2022-08-17T18:35:58.873Z,100824.50
2022-08-17T18:38:41.202Z,100823.75
2022-08-17T18:41:27.287Z,100821.87
2022-08-17T18:43:53.823Z,100826.23
2022-08-17T18:46:36.430Z,100824.63
2022-08-17T18:49:32.970Z,100821.21
2022-08-17T18:51:44.214Z,100810.83
2022-08-17T18:54:11.103Z,100805.38
2022-08-17T18:56:27.688Z,100802.38
2022-08-17T18:59:03.895Z,100799.08
2022-08-17T19:01:22.222Z,100793.80
2022-08-17T19:04:43.234Z,100797.55
2022-08-17T19:07:17.252Z,100789.83
2022-08-17T19:10:46.881Z,100785.48
2022-08-17T19:13:39.229Z,100783.49
2022-08-17T19:16:11.841Z,100782.45
2022-08-17T19:18:27.753Z,100774.86
2022-08-17T19:21:04.578Z,100772.95
2022-08-17T19:23:32.431Z,100774.08
2022-08-17T19:26:50.531Z,100772.67
2022-08-17T19:29:05.295Z,100772.75
2022-08-17T19:31:26.015Z,100768.22
2022-08-17T19:33:39.983Z,100763.02
2022-08-17T19:36:15.033Z,100757.40
2022-08-17T19:38:45.783Z,100757.77
2022-08-17T19:41:20.656Z,100749.70
2022-08-17T19:43:35.935Z,100744.50
2022-08-17T19:46:26.313Z,100739.39
2022-08-17T19:49:48.789Z,100729.52
2022-08-17T19:52:24.154Z,100726.13
2022-08-17T19:54:44.956Z,100723.68
2022-08-17T19:57:33.084Z,100721.46
2022-08-17T20:00:03.569Z,100726.34
2022-08-17T20:02:30.419Z,100723.36
2022-08-17T20:05:11.235Z,100720.48
2022-08-17T20:07:28.040Z,100713.02
2022-08-17T20:09:51.167Z,100711.81
2022-08-17T20:12:09.420Z,100711.39
2022-08-17T20:14:34.703Z,100707.63
2022-08-17T20:16:45.132Z,100708.44
2022-08-17T20:19:00.672Z,100707.48
2022-08-17T20:21:48.275Z,100700.98
2022-08-17T20:24:44.501Z,100699.63
2022-08-17T20:27:31.634Z,100695.42
2022-08-17T20:30:02.436Z,100693.27
2022-08-17T20:33:19.030Z,100686.48
2022-08-17T20:35:37.401Z,100689.64
2022-08-17T20:38:03.659Z,100687.70
2022-08-17T20:40:54.447Z,100686.67
2022-08-17T20:43:26.214Z,100686.00
2022-08-17T20:46:27.014Z,100686.16
2022-08-17T20:49:03.207Z,100681.69
2022-08-17T20:51:29.135Z,100680.94
2022-08-17T20:53:55.658Z,100676.12
2022-08-17T20:56:06.311Z,100672.64
2022-08-17T20:58:24.940Z,100669.92
2022-08-17T21:01:28.777Z,100666.92
2022-08-17T21:03:52.177Z,100666.65
2022-08-17T21:06:04.207Z,100665.70
2022-08-17T21:08:34.380Z,100667.03
2022-08-17T21:10:54.353Z,100658.48
2022-08-17T21:13:43.598Z,100658.25
2022-08-17T21:16:49.051Z,100657.89
2022-08-17T21:19:48.982Z,100656.70
2022-08-17T21:22:11.304Z,100660.33
2022-08-17T21:24:44.513Z,100659.91
2022-08-17T21:27:36.501Z,100657.95
2022-08-17T21:30:41.018Z,100657.89
2022-08-17T21:33:44.976Z,100659.59
2022-08-17T21:36:40.076Z,100656.35
2022-08-17T21:39:50.427Z,100654.32
2022-08-17T21:41:59.579Z,100653.01
2022-08-17T21:44:30.550Z,100655.88
2022-08-17T21:47:15.968Z,100653.80
2022-08-17T21:50:23.785Z,100645.60
2022-08-17T21:52:35.175Z,100650.06
2022-08-17T21:54:50.312Z,100648.48
2022-08-17T21:57:12.025Z,100646.33
2022-08-17T21:59:53.492Z,100646.74
2022-08-17T22:02:38.918Z,100639.56
2022-08-17T22:05:10.797Z,100645.23
2022-08-17T22:07:38.033Z,100638.55
2022-08-17T22:10:57.198Z,100639.55
2022-08-17T22:13:17.141Z,100635.45
2022-08-17T22:15:30.002Z,100630.80
2022-08-17T22:17:51.001Z,100632.29
2022-08-17T22:20:10.779Z,100632.64
2022-08-17T22:22:58.087Z,100634.05
2022-08-17T22:25:09.902Z,100628.47
2022-08-17T22:27:20.550Z,100624.49
2022-08-17T22:29:57.353Z,100618.81
2022-08-17T22:32:35.490Z,100615.73
2022-08-17T22:35:28.126Z,100616.35
2022-08-17T22:38:04.047Z,100617.60
2022-08-17T22:40:56.993Z,100614.20
2022-08-17T22:43:26.423Z,100614.51
2022-08-17T22:45:34.927Z,100615.02
2022-08-17T22:47:50.043Z,100617.56
2022-08-17T22:50:07.181Z,100612.83
2022-08-17T22:52:57.381Z,100613.42
2022-08-17T22:55:28.513Z,100617.20
2022-08-17T22:58:17.033Z,100617.24
2022-08-17T23:00:59.536Z,100613.84
2022-08-17T23:03:54.181Z,100608.98
2022-08-17T23:06:47.895Z,100608.73
2022-08-17T23:09:05.235Z,100604.13
2022-08-17T23:11:36.980Z,100600.89
2022-08-17T23:14:00.332Z,100596.51
2022-08-17T23:16:32.272Z,100593.56
2022-08-17T23:18:59.395Z,100588.02
2022-08-17T23:21:33.198Z,100583.80
2022-08-17T23:23:44.826Z,100582.64
2022-08-17T23:26:13.050Z,100580.54
2022-08-17T23:28:23.524Z,100579.56
2022-08-17T23:30:45.778Z,100574.00
2022-08-17T23:33:09.603Z,100576.84
2022-08-17T23:35:17.944Z,100573.38
2022-08-17T23:37:28.763Z,100569.90
2022-08-17T23:39:39.454Z,100567.23
2022-08-17T23:41:54.836Z,100562.91
2022-08-17T23:44:08.959Z,100564.56
2022-08-17T23:46:23.038Z,100566.61
2022-08-17T23:48:36.919Z,100565.95
2022-08-17T23:50:55.562Z,100569.52
2022-08-17T23:53:07.181Z,100572.65
2022-08-17T23:55:17.882Z,100571.31
2022-08-17T23:57:33.683Z,100568.61
2022-08-17T23:59:46.959Z,100563.52
